Time;durP1;ratioP1;P1;durP2;ratioP2;P2;SDS_P1;SDS_P2;PMS_P1;PMS_P2;Temp;Humidity;BMP_temperature;BMP_pressure;BME280_temperature;BME280_humidity;BME280_pressure;Samples;Min_cycle;Max_cycle;Signal;HPM_P1;HPM_P2
2022/02/10 08:49:43;;;;;;;;;14.75;10.75;;;;;17.74;57.71;102157.09;5097450;27;48648;-74
2022/02/10 08:59:44;;;;;;;;;12.75;11.75;;;;;20.09;53.39;102173.03;5067236;27;45510;-73
2022/02/10 09:02:19;;;;;;;;;13.25;10.75;;;;;20.22;52.90;102170.31;5058055;27;45592;-72
2022/02/10 09:15:41;;;;;;;;;10.67;9.00;;;;;20.71;51.89;102173.91;5073298;27;52746;-72
2022/02/10 09:21:28;;;;;;;;;10.67;10.67;;;;;20.87;51.83;102145.81;5064510;27;45694;-71
2022/02/10 10:02:25;;;;;;;;;8.00;8.00;;;;;21.54;50.21;102181.22;5088689;27;45738;-71
2022/02/10 10:05:01;;;;;;;;;9.67;8.67;;;;;21.57;50.65;102179.16;5084360;27;45613;-71
2022/02/10 10:07:44;;;;;;;;;12.00;9.67;;;;;21.58;50.14;102180.00;5082589;27;45351;-69
2022/02/10 10:54:32;;;;;;;;;10.00;10.00;;;;;21.79;49.40;102209.88;5087876;27;46013;-73
2022/02/10 10:57:04;;;;;;;;;8.67;8.33;;;;;21.82;50.01;102215.06;5075423;27;45458;-73
2022/02/10 11:00:04;;;;;;;;;13.00;9.67;;;;;21.84;49.39;102213.09;5072672;27;45490;-73
2022/02/10 11:22:37;;;;;;;;;8.00;8.00;;;;;21.89;49.42;102198.34;5090327;27;45486;-73
2022/02/10 11:39:31;;;;;;;;;11.67;8.67;;;;;22.02;49.54;102185.56;5084659;27;45847;-71
2022/02/10 13:48:06;;;;;;;;;18.00;10.00;;;;;21.98;47.01;102044.41;5088992;27;45347;-81
2022/02/10 14:17:11;;;;;;;;;16.00;11.33;;;;;21.91;46.71;102016.13;5090665;27;48749;-82
2022/02/10 14:19:46;;;;;;;;;14.67;9.33;;;;;21.93;46.91;102016.91;5092326;27;45370;-79
2022/02/10 14:27:27;;;;;;;;;16.33;9.67;;;;;21.99;47.31;102004.72;5089997;27;45501;-81
2022/02/10 14:29:53;;;;;;;;;13.33;10.33;;;;;21.99;47.47;102012.81;5090331;27;45553;-76
2022/02/10 14:32:23;;;;;;;;;11.33;10.33;;;;;22.03;47.60;102010.72;5087332;27;45472;-77
2022/02/10 14:34:51;;;;;;;;;12.67;9.67;;;;;22.02;47.86;102009.00;5078952;27;46029;-75
2022/02/10 15:16:08;;;;;;;;;26.25;20.50;;;;;21.67;44.81;101989.28;5086526;27;45495;-76
2022/02/10 16:12:50;;;;;;;;;23.50;18.50;;;;;21.32;45.64;101993.84;5084407;27;45720;-74
2022/02/10 16:17:16;;;;;;;;;22.75;19.00;;;;;21.25;44.68;101987.25;5088130;27;45307;-75
2022/02/10 16:19:44;;;;;;;;;22.25;18.00;;;;;21.26;45.38;101978.16;5091237;27;45388;-75
2022/02/10 16:22:22;;;;;;;;;26.00;19.75;;;;;21.26;44.99;101981.69;5091855;27;45496;-76
2022/02/10 16:25:09;;;;;;;;;23.50;20.75;;;;;21.28;44.94;101979.75;5090871;27;45486;-78
2022/02/10 16:27:36;;;;;;;;;24.25;16.50;;;;;21.27;44.92;101967.22;5089447;27;45642;-74
2022/02/10 16:30:12;;;;;;;;;26.00;19.75;;;;;21.27;44.88;101966.38;5085607;27;45537;-75
2022/02/10 16:32:40;;;;;;;;;26.50;19.25;;;;;21.26;44.48;101960.09;5085198;27;45501;-74
2022/02/10 16:35:06;;;;;;;;;26.50;16.50;;;;;21.26;45.34;101962.78;5084812;27;45981;-72
2022/02/10 16:37:34;;;;;;;;;23.50;16.50;;;;;21.25;45.25;101962.94;5098431;27;45450;-73
2022/02/10 16:40:00;;;;;;;;;19.00;13.75;;;;;21.22;45.78;101960.47;5092680;27;45444;-73
2022/02/10 16:42:25;;;;;;;;;29.25;18.50;;;;;21.23;45.41;101968.47;5093214;27;45898;-73
2022/02/10 16:44:52;;;;;;;;;20.00;16.75;;;;;21.21;45.99;101965.00;5092056;27;45470;-73
2022/02/10 16:47:18;;;;;;;;;20.33;13.00;;;;;21.16;45.76;101964.53;5092520;27;45476;-73
2022/02/10 16:49:47;;;;;;;;;25.00;17.50;;;;;21.18;45.73;101978.78;5077445;27;50680;-74
2022/02/10 16:52:21;;;;;;;;;32.50;24.25;;;;;21.17;45.54;101980.59;5082361;27;45533;-74
2022/02/10 16:54:49;;;;;;;;;20.25;16.75;;;;;21.16;45.93;101978.00;5086762;27;45494;-69
2022/02/10 16:57:36;;;;;;;;;19.50;13.00;;;;;21.13;46.39;101981.81;5085671;27;45561;-73
2022/02/10 17:00:11;;;;;;;;;24.25;19.25;;;;;21.14;46.33;101988.09;5085851;27;45619;-73
2022/02/10 17:27:09;;;;;;;;;18.67;15.67;;;;;21.19;45.98;101980.47;5081852;27;45340;-75
2022/02/10 17:53:21;;;;;;;;;10.33;10.00;;;;;21.55;46.36;102018.16;5062988;27;45683;-74
2022/02/10 17:55:47;;;;;;;;;11.00;9.67;;;;;21.57;45.82;102016.19;5064218;28;45521;-75
2022/02/10 17:58:12;;;;;;;;;15.00;13.00;;;;;21.55;45.73;102027.09;5063539;28;45439;-70
2022/02/10 18:00:37;;;;;;;;;23.33;17.00;;;;;21.57;46.34;102029.69;5067993;28;45809;-71
2022/02/10 18:05:13;;;;;;;;;26.50;17.50;;;;;21.52;46.01;102038.16;5061952;27;45591;-70
2022/02/10 18:07:41;;;;;;;;;23.00;18.50;;;;;21.52;45.98;102040.00;5032415;28;45452;-70
2022/02/10 18:10:37;;;;;;;;;18.00;16.67;;;;;21.51;45.84;102052.66;5037174;28;45538;-70
2022/02/10 18:15:44;;;;;;;;;22.50;18.75;;;;;21.52;46.29;102072.41;5037782;28;45510;-70
2022/02/10 18:18:20;;;;;;;;;21.00;17.50;;;;;21.50;45.90;102072.53;5033983;28;45515;-70
2022/02/10 18:20:53;;;;;;;;;19.00;14.00;;;;;21.51;46.39;102070.72;5035004;28;46517;-70
2022/02/10 18:23:24;;;;;;;;;17.67;14.00;;;;;21.52;46.28;102081.41;5041271;28;45870;-70
2022/02/10 18:25:57;;;;;;;;;22.50;17.00;;;;;21.54;46.51;102086.69;5045538;28;46027;-70
2022/02/10 18:28:36;;;;;;;;;16.67;13.33;;;;;21.53;46.27;102091.22;5030330;28;45469;-70
2022/02/10 18:37:59;;;;;;;;;15.75;13.00;;;;;21.52;46.13;102112.94;5041974;28;45849;-70
2022/02/10 19:09:42;;;;;;;;;12.33;9.33;;;;;21.39;46.38;102151.75;5048713;28;45490;-71
2022/02/10 19:11:48;;;;;;;;;16.33;12.67;;;;;21.38;45.98;102162.66;5041859;28;45689;-76
2022/02/10 19:14:16;;;;;;;;;14.33;11.33;;;;;21.37;46.50;102159.09;5045508;28;45497;-76
2022/02/10 19:16:42;;;;;;;;;14.33;12.00;;;;;21.39;46.54;102158.97;5027723;28;45889;-86
2022/02/10 19:19:07;;;;;;;;;14.00;13.33;;;;;21.42;46.32;102178.50;5026548;28;45594;-81
2022/02/10 19:21:32;;;;;;;;;15.00;11.00;;;;;21.46;46.66;102176.44;5025978;28;45449;-80
2022/02/10 19:23:58;;;;;;;;;10.00;7.67;;;;;21.49;46.39;102184.28;5026649;28;46505;-82
2022/02/10 19:26:23;;;;;;;;;11.33;10.33;;;;;21.52;46.64;102189.44;5024022;28;45461;-79
2022/02/10 19:28:48;;;;;;;;;11.00;9.00;;;;;21.55;46.22;102199.16;5030475;28;52798;-79
2022/02/10 19:31:19;;;;;;;;;9.00;6.67;;;;;21.58;46.56;102197.06;5024013;28;45546;-77
2022/02/10 19:33:45;;;;;;;;;10.00;8.67;;;;;21.62;46.01;102204.94;5026553;28;45735;-76
2022/02/10 19:36:10;;;;;;;;;8.67;7.00;;;;;21.65;45.77;102200.16;5021683;28;45783;-76
2022/02/10 19:38:35;;;;;;;;;15.33;12.00;;;;;21.68;45.93;102204.44;5022436;28;45766;-74
2022/02/10 19:41:01;;;;;;;;;9.67;8.67;;;;;21.70;45.51;102195.25;5023898;28;46466;-72
2022/02/10 19:43:27;;;;;;;;;7.00;7.00;;;;;21.73;45.89;102199.56;5028585;28;45534;-72
2022/02/10 19:45:52;;;;;;;;;8.33;7.00;;;;;21.77;45.35;102208.28;5024571;28;45556;-72
2022/02/10 19:48:19;;;;;;;;;10.00;7.00;;;;;21.80;45.75;102211.63;5027698;28;45860;-72
2022/02/10 19:50:44;;;;;;;;;8.67;7.00;;;;;21.84;45.63;102217.66;5026175;28;45366;-73
2022/02/10 19:53:12;;;;;;;;;8.33;8.33;;;;;21.86;45.56;102221.06;5029696;28;45495;-72
2022/02/10 19:55:40;;;;;;;;;8.00;7.00;;;;;21.90;45.72;102227.13;5026226;28;45360;-72
2022/02/10 19:58:09;;;;;;;;;10.00;8.33;;;;;21.91;45.64;102234.25;5029373;28;46208;-73
2022/02/10 20:00:41;;;;;;;;;9.00;7.33;;;;;21.94;45.13;102228.56;5033325;28;45392;-73
2022/02/10 20:03:16;;;;;;;;;9.33;7.33;;;;;21.95;45.38;102228.47;5029118;28;45578;-73
2022/02/10 20:05:45;;;;;;;;;8.33;7.67;;;;;21.98;45.48;102240.88;5033290;28;45729;-73
2022/02/10 20:08:16;;;;;;;;;5.33;3.67;;;;;21.98;45.26;102240.88;5036131;28;46592;-72
2022/02/10 20:10:43;;;;;;;;;8.00;8.00;;;;;21.99;45.08;102237.22;5039904;28;45368;-73
2022/02/10 20:13:13;;;;;;;;;9.67;9.33;;;;;22.00;45.22;102246.16;5029153;28;45559;-75
2022/02/10 20:15:38;;;;;;;;;7.33;6.33;;;;;22.01;45.28;102246.03;5038078;28;45398;-73
2022/02/10 20:18:05;;;;;;;;;10.33;8.00;;;;;22.02;45.18;102249.63;5036983;28;46165;-73
2022/02/10 20:20:31;;;;;;;;;10.33;7.33;;;;;22.04;45.48;102255.75;5033267;28;45365;-72
2022/02/10 20:22:56;;;;;;;;;7.00;6.00;;;;;22.05;44.94;102260.16;5031579;28;45497;-71
2022/02/10 20:25:22;;;;;;;;;9.33;8.00;;;;;22.07;45.03;102259.06;5046842;28;45558;-71
2022/02/10 20:27:48;;;;;;;;;9.33;6.33;;;;;22.08;45.62;102258.09;5049755;28;45406;-72
2022/02/10 20:30:13;;;;;;;;;10.00;8.00;;;;;22.13;45.29;102262.25;5035785;28;45559;-72
2022/02/10 20:32:39;;;;;;;;;8.67;7.33;;;;;22.14;44.90;102274.81;5035265;28;45440;-71
2022/02/10 20:35:06;;;;;;;;;8.00;8.00;;;;;22.14;45.64;102259.44;5035363;28;45522;-71
2022/02/10 20:37:31;;;;;;;;;11.00;8.00;;;;;22.17;44.85;102271.84;5032122;28;46537;-72
2022/02/10 20:39:57;;;;;;;;;7.33;7.33;;;;;22.18;44.90;102278.97;5035822;28;45728;-71
2022/02/10 20:42:22;;;;;;;;;7.33;5.67;;;;;22.19;44.92;102278.88;5031493;28;45567;-72
2022/02/10 20:44:53;;;;;;;;;8.33;6.00;;;;;22.21;45.44;102285.03;5028914;28;45470;-74
2022/02/10 20:47:21;;;;;;;;;10.33;7.00;;;;;22.25;44.98;102277.53;5037077;28;47645;-73
2022/02/10 20:49:46;;;;;;;;;7.00;6.50;;;;;22.26;44.81;102276.53;5018165;28;45511;-73
2022/02/10 20:52:13;;;;;;;;;9.00;7.33;;;;;22.28;45.11;102281.81;5029367;28;45572;-74
2022/02/10 20:54:39;;;;;;;;;5.67;5.67;;;;;22.31;45.02;102295.13;5028589;28;45511;-74
2022/02/10 20:57:05;;;;;;;;;5.00;5.00;;;;;22.32;44.79;102286.84;5024313;28;45494;-75
2022/02/10 20:59:36;;;;;;;;;9.33;4.33;;;;;22.34;44.85;102287.59;5022027;28;45531;-75
2022/02/10 21:02:10;;;;;;;;;6.00;6.00;;;;;22.34;45.00;102282.19;5028666;28;45447;-76
2022/02/10 21:04:42;;;;;;;;;5.67;5.67;;;;;22.36;44.77;102273.97;5016069;28;45803;-76
2022/02/10 21:09:41;;;;;;;;;6.67;4.67;;;;;22.36;45.03;102282.91;5029950;28;45433;-76
2022/02/10 21:12:10;;;;;;;;;6.00;6.00;;;;;22.34;44.69;102284.91;5027307;28;45414;-75
2022/02/10 21:14:36;;;;;;;;;5.00;5.00;;;;;22.33;44.49;102302.13;5028128;28;45602;-75
2022/02/10 21:17:10;;;;;;;;;5.33;4.67;;;;;22.34;44.88;102316.50;5027733;28;45976;-75
2022/02/10 21:19:37;;;;;;;;;4.67;4.67;;;;;22.33;44.98;102320.19;5032344;28;48326;-74
2022/02/10 21:22:21;;;;;;;;;6.00;5.00;;;;;22.35;44.39;102320.91;5034204;28;45369;-76
2022/02/10 21:24:53;;;;;;;;;7.33;7.33;;;;;22.34;44.47;102309.25;5038672;28;45404;-74
2022/02/10 21:29:55;;;;;;;;;7.33;7.33;;;;;22.41;44.42;102312.31;5034307;28;45487;-76
2022/02/10 21:32:21;;;;;;;;;4.00;4.00;;;;;22.44;44.88;102313.91;5036416;28;45502;-75
2022/02/10 21:35:01;;;;;;;;;6.67;6.67;;;;;22.47;44.62;102311.81;5030293;28;45246;-77
2022/02/10 21:37:27;;;;;;;;;6.00;4.67;;;;;22.51;44.50;102323.25;5015755;28;45569;-76
2022/02/10 21:40:01;;;;;;;;;5.00;5.00;;;;;22.52;44.51;102322.25;5038377;28;45475;-77
2022/02/10 21:53:42;;;;;;;;;4.00;4.00;;;;;22.52;44.43;102327.66;5045460;28;45719;-75
2022/02/10 22:03:47;;;;;;;;;6.00;5.33;;;;;22.76;44.88;102332.13;5036008;28;45514;-78
2022/02/10 22:21:25;;;;;;;;;5.00;4.33;;;;;23.28;44.75;102351.34;5035413;28;45823;-77
2022/02/10 22:23:50;;;;;;;;;4.00;4.00;;;;;23.35;44.86;102349.03;5033868;28;45404;-76
2022/02/10 22:26:23;;;;;;;;;4.00;4.00;;;;;23.39;44.47;102346.91;5032438;28;45489;-77
2022/02/10 22:36:23;;;;;;;;;5.67;5.00;;;;;23.50;44.26;102356.84;5044332;28;45446;-76
2022/02/10 22:38:52;;;;;;;;;5.33;5.00;;;;;23.51;44.88;102362.13;5033850;28;45677;-77
2022/02/10 22:41:18;;;;;;;;;6.00;4.67;;;;;23.53;44.82;102360.16;5033122;28;45464;-76
2022/02/10 22:43:48;;;;;;;;;3.00;3.00;;;;;23.55;45.07;102370.88;5030504;28;45352;-77
2022/02/10 22:46:15;;;;;;;;;4.00;4.00;;;;;23.55;44.88;102369.00;5036307;28;45666;-76
2022/02/10 22:48:44;;;;;;;;;6.00;3.67;;;;;23.58;44.92;102367.03;5047186;28;46094;-76
2022/02/10 22:51:10;;;;;;;;;5.00;4.00;;;;;23.61;44.93;102369.47;5034648;28;45700;-76
2022/02/10 22:53:35;;;;;;;;;4.00;4.00;;;;;23.63;44.65;102375.63;5038418;28;47448;-76
2022/02/10 22:56:01;;;;;;;;;5.33;5.33;;;;;23.64;44.87;102369.22;5037218;28;45390;-77
2022/02/10 22:58:28;;;;;;;;;5.00;5.00;;;;;23.70;44.91;102374.13;5032614;28;45459;-76
2022/02/10 23:00:54;;;;;;;;;4.67;4.00;;;;;23.76;44.91;102389.88;5039572;28;45447;-76
2022/02/10 23:03:25;;;;;;;;;6.33;5.00;;;;;23.78;44.65;102370.75;5038220;28;45427;-75
2022/02/10 23:05:52;;;;;;;;;6.67;4.33;;;;;23.83;44.84;102387.50;5036683;28;45400;-76
2022/02/10 23:08:19;;;;;;;;;6.00;4.00;;;;;23.85;44.88;102388.22;5039092;28;45360;-76
2022/02/10 23:10:49;;;;;;;;;4.33;4.00;;;;;23.88;44.79;102389.81;5032946;28;45489;-75
